sensor_id;sensor_type;location;lat;lon;timestamp;P1;durP1;ratioP1;P2;durP2;ratioP2
42018;SDS011;27703;51.980;5.848;2023-07-24T00:00:23;2.33;;;0.63;;
42018;SDS011;27703;51.980;5.848;2023-07-24T00:02:48;1.45;;;0.70;;
42018;SDS011;27703;51.980;5.848;2023-07-24T00:05:14;1.15;;;0.52;;
42018;SDS011;27703;51.980;5.848;2023-07-24T00:07:40;1.05;;;0.47;;
42018;SDS011;27703;51.980;5.848;2023-07-24T00:10:05;1.42;;;0.50;;
42018;SDS011;27703;51.980;5.848;2023-07-24T00:12:31;1.02;;;0.40;;
42018;SDS011;27703;51.980;5.848;2023-07-24T00:14:57;1.00;;;0.50;;
42018;SDS011;27703;51.980;5.848;2023-07-24T00:17:23;1.10;;;0.50;;
42018;SDS011;27703;51.980;5.848;2023-07-24T00:19:49;1.83;;;0.50;;
42018;SDS011;27703;51.980;5.848;2023-07-24T00:22:15;1.52;;;0.47;;
42018;SDS011;27703;51.980;5.848;2023-07-24T00:24:40;1.05;;;0.50;;
42018;SDS011;27703;51.980;5.848;2023-07-24T00:27:06;0.90;;;0.50;;
42018;SDS011;27703;51.980;5.848;2023-07-24T00:29:32;1.20;;;0.55;;
42018;SDS011;27703;51.980;5.848;2023-07-24T00:31:57;1.85;;;0.40;;
42018;SDS011;27703;51.980;5.848;2023-07-24T00:34:23;0.88;;;0.43;;
42018;SDS011;27703;51.980;5.848;2023-07-24T00:36:48;2.13;;;0.50;;
42018;SDS011;27703;51.980;5.848;2023-07-24T00:39:14;1.30;;;0.50;;
42018;SDS011;27703;51.980;5.848;2023-07-24T00:41:40;1.50;;;0.57;;
42018;SDS011;27703;51.980;5.848;2023-07-24T00:44:06;1.33;;;0.40;;
42018;SDS011;27703;51.980;5.848;2023-07-24T00:46:32;1.55;;;0.40;;
42018;SDS011;27703;51.980;5.848;2023-07-24T00:49:00;1.00;;;0.35;;
42018;SDS011;27703;51.980;5.848;2023-07-24T00:51:26;0.90;;;0.40;;
42018;SDS011;27703;51.980;5.848;2023-07-24T00:53:54;0.82;;;0.40;;
42018;SDS011;27703;51.980;5.848;2023-07-24T00:56:21;1.10;;;0.50;;
42018;SDS011;27703;51.980;5.848;2023-07-24T00:58:47;1.05;;;0.40;;
42018;SDS011;27703;51.980;5.848;2023-07-24T01:01:14;1.42;;;0.47;;
42018;SDS011;27703;51.980;5.848;2023-07-24T01:03:41;1.08;;;0.50;;
42018;SDS011;27703;51.980;5.848;2023-07-24T01:06:08;1.65;;;0.50;;
42018;SDS011;27703;51.980;5.848;2023-07-24T01:08:34;1.00;;;0.47;;
42018;SDS011;27703;51.980;5.848;2023-07-24T01:11:03;1.50;;;0.45;;
42018;SDS011;27703;51.980;5.848;2023-07-24T01:13:40;1.10;;;0.40;;
42018;SDS011;27703;51.980;5.848;2023-07-24T01:16:09;1.08;;;0.30;;
42018;SDS011;27703;51.980;5.848;2023-07-24T01:18:39;0.95;;;0.40;;
42018;SDS011;27703;51.980;5.848;2023-07-24T01:21:05;1.13;;;0.52;;
42018;SDS011;27703;51.980;5.848;2023-07-24T01:23:44;1.75;;;0.47;;
42018;SDS011;27703;51.980;5.848;2023-07-24T01:26:24;1.15;;;0.50;;
42018;SDS011;27703;51.980;5.848;2023-07-24T01:28:50;1.92;;;0.57;;
42018;SDS011;27703;51.980;5.848;2023-07-24T01:31:16;1.15;;;0.75;;
42018;SDS011;27703;51.980;5.848;2023-07-24T01:33:42;1.45;;;0.80;;
42018;SDS011;27703;51.980;5.848;2023-07-24T01:36:09;1.67;;;0.90;;
42018;SDS011;27703;51.980;5.848;2023-07-24T01:38:35;1.23;;;0.65;;
42018;SDS011;27703;51.980;5.848;2023-07-24T01:41:04;1.42;;;0.70;;
42018;SDS011;27703;51.980;5.848;2023-07-24T01:43:30;2.50;;;1.13;;
42018;SDS011;27703;51.980;5.848;2023-07-24T01:45:57;4.55;;;1.00;;
42018;SDS011;27703;51.980;5.848;2023-07-24T01:48:23;1.67;;;1.02;;
42018;SDS011;27703;51.980;5.848;2023-07-24T01:50:49;3.20;;;1.67;;
42018;SDS011;27703;51.980;5.848;2023-07-24T01:53:15;2.53;;;1.52;;
42018;SDS011;27703;51.980;5.848;2023-07-24T01:55:41;2.25;;;1.48;;
42018;SDS011;27703;51.980;5.848;2023-07-24T01:58:06;1.80;;;1.20;;
42018;SDS011;27703;51.980;5.848;2023-07-24T02:00:32;1.60;;;1.17;;
42018;SDS011;27703;51.980;5.848;2023-07-24T02:02:57;2.08;;;1.25;;
42018;SDS011;27703;51.980;5.848;2023-07-24T02:05:23;1.88;;;1.15;;
42018;SDS011;27703;51.980;5.848;2023-07-24T02:07:48;1.65;;;1.23;;
42018;SDS011;27703;51.980;5.848;2023-07-24T02:10:14;1.65;;;1.15;;
42018;SDS011;27703;51.980;5.848;2023-07-24T02:12:40;1.48;;;0.90;;
42018;SDS011;27703;51.980;5.848;2023-07-24T02:15:06;1.45;;;0.93;;
42018;SDS011;27703;51.980;5.848;2023-07-24T02:17:32;1.95;;;1.08;;
42018;SDS011;27703;51.980;5.848;2023-07-24T02:19:57;2.85;;;0.82;;
42018;SDS011;27703;51.980;5.848;2023-07-24T02:22:23;2.30;;;1.33;;
42018;SDS011;27703;51.980;5.848;2023-07-24T02:24:49;2.70;;;1.25;;
42018;SDS011;27703;51.980;5.848;2023-07-24T02:27:24;2.58;;;1.42;;
42018;SDS011;27703;51.980;5.848;2023-07-24T02:29:56;1.70;;;0.98;;
42018;SDS011;27703;51.980;5.848;2023-07-24T02:32:21;1.60;;;1.10;;
42018;SDS011;27703;51.980;5.848;2023-07-24T02:34:50;1.95;;;1.20;;
42018;SDS011;27703;51.980;5.848;2023-07-24T02:37:16;1.83;;;1.25;;
42018;SDS011;27703;51.980;5.848;2023-07-24T02:39:42;2.00;;;0.98;;
42018;SDS011;27703;51.980;5.848;2023-07-24T02:42:07;2.63;;;1.10;;
42018;SDS011;27703;51.980;5.848;2023-07-24T02:44:34;2.47;;;1.15;;
42018;SDS011;27703;51.980;5.848;2023-07-24T02:46:59;1.80;;;1.00;;
42018;SDS011;27703;51.980;5.848;2023-07-24T02:49:25;4.68;;;1.27;;
42018;SDS011;27703;51.980;5.848;2023-07-24T02:51:50;2.53;;;0.93;;
42018;SDS011;27703;51.980;5.848;2023-07-24T02:54:16;2.28;;;1.23;;
42018;SDS011;27703;51.980;5.848;2023-07-24T02:56:42;1.40;;;0.70;;
42018;SDS011;27703;51.980;5.848;2023-07-24T02:59:07;1.90;;;0.90;;
42018;SDS011;27703;51.980;5.848;2023-07-24T03:01:33;1.90;;;0.88;;
42018;SDS011;27703;51.980;5.848;2023-07-24T03:03:58;2.42;;;0.90;;
42018;SDS011;27703;51.980;5.848;2023-07-24T03:06:25;1.50;;;0.95;;
42018;SDS011;27703;51.980;5.848;2023-07-24T03:08:50;1.40;;;0.85;;
42018;SDS011;27703;51.980;5.848;2023-07-24T03:11:16;1.83;;;1.20;;
42018;SDS011;27703;51.980;5.848;2023-07-24T03:13:41;2.10;;;1.25;;
42018;SDS011;27703;51.980;5.848;2023-07-24T03:16:08;2.80;;;1.30;;
42018;SDS011;27703;51.980;5.848;2023-07-24T03:18:33;1.95;;;1.17;;
42018;SDS011;27703;51.980;5.848;2023-07-24T03:20:59;2.28;;;1.20;;
42018;SDS011;27703;51.980;5.848;2023-07-24T03:23:25;2.20;;;0.90;;
42018;SDS011;27703;51.980;5.848;2023-07-24T03:25:51;1.95;;;1.27;;
42018;SDS011;27703;51.980;5.848;2023-07-24T03:28:16;2.08;;;1.40;;
42018;SDS011;27703;51.980;5.848;2023-07-24T03:30:42;1.85;;;0.90;;
42018;SDS011;27703;51.980;5.848;2023-07-24T03:33:07;1.95;;;1.13;;
42018;SDS011;27703;51.980;5.848;2023-07-24T03:35:33;1.90;;;1.20;;
42018;SDS011;27703;51.980;5.848;2023-07-24T03:37:59;2.47;;;1.35;;
42018;SDS011;27703;51.980;5.848;2023-07-24T03:40:25;2.08;;;1.23;;
42018;SDS011;27703;51.980;5.848;2023-07-24T03:42:50;2.40;;;1.30;;
42018;SDS011;27703;51.980;5.848;2023-07-24T03:45:16;2.50;;;1.15;;
42018;SDS011;27703;51.980;5.848;2023-07-24T03:47:42;2.78;;;1.77;;
42018;SDS011;27703;51.980;5.848;2023-07-24T03:50:07;2.50;;;1.75;;
42018;SDS011;27703;51.980;5.848;2023-07-24T03:52:33;3.13;;;1.98;;
42018;SDS011;27703;51.980;5.848;2023-07-24T03:54:59;2.50;;;2.08;;
42018;SDS011;27703;51.980;5.848;2023-07-24T03:57:24;2.50;;;1.67;;
42018;SDS011;27703;51.980;5.848;2023-07-24T03:59:50;2.10;;;1.42;;
42018;SDS011;27703;51.980;5.848;2023-07-24T04:02:15;3.45;;;2.13;;
42018;SDS011;27703;51.980;5.848;2023-07-24T04:04:41;3.55;;;2.70;;
42018;SDS011;27703;51.980;5.848;2023-07-24T04:07:06;3.25;;;2.60;;
42018;SDS011;27703;51.980;5.848;2023-07-24T04:09:32;3.65;;;2.63;;
42018;SDS011;27703;51.980;5.848;2023-07-24T04:11:57;2.78;;;2.47;;
42018;SDS011;27703;51.980;5.848;2023-07-24T04:14:23;2.75;;;2.15;;
42018;SDS011;27703;51.980;5.848;2023-07-24T04:16:49;3.47;;;2.00;;
42018;SDS011;27703;51.980;5.848;2023-07-24T04:19:14;2.50;;;2.13;;
42018;SDS011;27703;51.980;5.848;2023-07-24T04:21:40;2.80;;;2.33;;
42018;SDS011;27703;51.980;5.848;2023-07-24T04:24:05;4.00;;;2.58;;
42018;SDS011;27703;51.980;5.848;2023-07-24T04:26:31;3.35;;;2.25;;
42018;SDS011;27703;51.980;5.848;2023-07-24T04:28:57;2.20;;;1.95;;
42018;SDS011;27703;51.980;5.848;2023-07-24T04:31:22;2.95;;;2.65;;
42018;SDS011;27703;51.980;5.848;2023-07-24T04:33:48;2.30;;;1.65;;
42018;SDS011;27703;51.980;5.848;2023-07-24T04:36:13;3.42;;;2.40;;
42018;SDS011;27703;51.980;5.848;2023-07-24T04:38:39;3.20;;;2.80;;
42018;SDS011;27703;51.980;5.848;2023-07-24T04:41:04;3.60;;;2.78;;
42018;SDS011;27703;51.980;5.848;2023-07-24T04:43:30;2.88;;;2.38;;
42018;SDS011;27703;51.980;5.848;2023-07-24T04:45:56;2.60;;;2.28;;
42018;SDS011;27703;51.980;5.848;2023-07-24T04:48:21;3.53;;;3.22;;
42018;SDS011;27703;51.980;5.848;2023-07-24T04:50:52;3.65;;;3.08;;
42018;SDS011;27703;51.980;5.848;2023-07-24T04:53:19;2.92;;;2.58;;
42018;SDS011;27703;51.980;5.848;2023-07-24T04:55:45;3.25;;;2.60;;
42018;SDS011;27703;51.980;5.848;2023-07-24T04:58:12;5.45;;;3.15;;
42018;SDS011;27703;51.980;5.848;2023-07-24T05:00:38;3.30;;;2.88;;
42018;SDS011;27703;51.980;5.848;2023-07-24T05:03:03;3.67;;;2.40;;
42018;SDS011;27703;51.980;5.848;2023-07-24T05:05:30;3.83;;;2.67;;
42018;SDS011;27703;51.980;5.848;2023-07-24T05:07:56;4.85;;;3.05;;
42018;SDS011;27703;51.980;5.848;2023-07-24T05:10:22;3.92;;;3.53;;
42018;SDS011;27703;51.980;5.848;2023-07-24T05:12:47;4.40;;;4.00;;
42018;SDS011;27703;51.980;5.848;2023-07-24T05:15:13;4.10;;;3.70;;
42018;SDS011;27703;51.980;5.848;2023-07-24T05:17:41;4.30;;;3.88;;
42018;SDS011;27703;51.980;5.848;2023-07-24T05:20:08;5.63;;;5.13;;
42018;SDS011;27703;51.980;5.848;2023-07-24T05:22:34;4.60;;;4.20;;
42018;SDS011;27703;51.980;5.848;2023-07-24T05:25:00;5.40;;;4.05;;
42018;SDS011;27703;51.980;5.848;2023-07-24T05:27:25;5.90;;;4.40;;
42018;SDS011;27703;51.980;5.848;2023-07-24T05:29:51;5.35;;;4.85;;
42018;SDS011;27703;51.980;5.848;2023-07-24T05:32:17;4.00;;;3.65;;
42018;SDS011;27703;51.980;5.848;2023-07-24T05:34:42;4.93;;;4.22;;
42018;SDS011;27703;51.980;5.848;2023-07-24T05:37:08;4.63;;;4.22;;
42018;SDS011;27703;51.980;5.848;2023-07-24T05:39:33;4.90;;;4.30;;
42018;SDS011;27703;51.980;5.848;2023-07-24T05:41:59;4.70;;;4.30;;
42018;SDS011;27703;51.980;5.848;2023-07-24T05:44:24;4.78;;;4.32;;
42018;SDS011;27703;51.980;5.848;2023-07-24T05:46:50;7.57;;;6.28;;
42018;SDS011;27703;51.980;5.848;2023-07-24T05:49:16;6.40;;;5.45;;
42018;SDS011;27703;51.980;5.848;2023-07-24T05:51:41;5.70;;;5.20;;
42018;SDS011;27703;51.980;5.848;2023-07-24T05:54:07;6.05;;;5.43;;
42018;SDS011;27703;51.980;5.848;2023-07-24T05:56:32;5.80;;;5.20;;
42018;SDS011;27703;51.980;5.848;2023-07-24T05:58:58;5.68;;;4.93;;
42018;SDS011;27703;51.980;5.848;2023-07-24T06:01:23;5.75;;;4.30;;
42018;SDS011;27703;51.980;5.848;2023-07-24T06:03:49;5.65;;;5.05;;
42018;SDS011;27703;51.980;5.848;2023-07-24T06:06:15;6.55;;;4.57;;
42018;SDS011;27703;51.980;5.848;2023-07-24T06:08:40;5.63;;;4.60;;
42018;SDS011;27703;51.980;5.848;2023-07-24T06:11:06;7.25;;;5.05;;
42018;SDS011;27703;51.980;5.848;2023-07-24T06:13:31;4.50;;;4.00;;
42018;SDS011;27703;51.980;5.848;2023-07-24T06:15:57;7.55;;;6.03;;
42018;SDS011;27703;51.980;5.848;2023-07-24T06:18:23;6.95;;;6.13;;
42018;SDS011;27703;51.980;5.848;2023-07-24T06:20:52;8.23;;;6.28;;
42018;SDS011;27703;51.980;5.848;2023-07-24T06:23:18;7.07;;;5.80;;
42018;SDS011;27703;51.980;5.848;2023-07-24T06:25:44;7.47;;;5.80;;
42018;SDS011;27703;51.980;5.848;2023-07-24T06:28:09;6.57;;;5.25;;
42018;SDS011;27703;51.980;5.848;2023-07-24T06:30:35;10.13;;;5.68;;
42018;SDS011;27703;51.980;5.848;2023-07-24T06:33:00;8.15;;;7.13;;
42018;SDS011;27703;51.980;5.848;2023-07-24T06:35:26;6.18;;;5.35;;
42018;SDS011;27703;51.980;5.848;2023-07-24T06:37:51;6.95;;;6.25;;
42018;SDS011;27703;51.980;5.848;2023-07-24T06:40:17;10.05;;;6.72;;
42018;SDS011;27703;51.980;5.848;2023-07-24T06:42:43;6.70;;;6.00;;
42018;SDS011;27703;51.980;5.848;2023-07-24T06:45:08;7.55;;;6.70;;
42018;SDS011;27703;51.980;5.848;2023-07-24T06:47:34;7.50;;;6.60;;
42018;SDS011;27703;51.980;5.848;2023-07-24T06:50:00;7.80;;;6.20;;
42018;SDS011;27703;51.980;5.848;2023-07-24T06:52:27;7.32;;;5.90;;
42018;SDS011;27703;51.980;5.848;2023-07-24T06:54:52;8.57;;;7.65;;
42018;SDS011;27703;51.980;5.848;2023-07-24T06:57:18;7.40;;;5.88;;
42018;SDS011;27703;51.980;5.848;2023-07-24T06:59:43;10.32;;;8.68;;
42018;SDS011;27703;51.980;5.848;2023-07-24T07:02:09;9.52;;;8.48;;
42018;SDS011;27703;51.980;5.848;2023-07-24T07:04:35;10.20;;;9.20;;
42018;SDS011;27703;51.980;5.848;2023-07-24T07:07:00;11.23;;;8.85;;
42018;SDS011;27703;51.980;5.848;2023-07-24T07:09:26;10.63;;;8.00;;
42018;SDS011;27703;51.980;5.848;2023-07-24T07:11:51;9.90;;;8.65;;
42018;SDS011;27703;51.980;5.848;2023-07-24T07:14:17;13.57;;;11.25;;
42018;SDS011;27703;51.980;5.848;2023-07-24T07:16:42;11.18;;;9.98;;
42018;SDS011;27703;51.980;5.848;2023-07-24T07:19:09;14.10;;;10.93;;
42018;SDS011;27703;51.980;5.848;2023-07-24T07:21:34;12.98;;;11.27;;
42018;SDS011;27703;51.980;5.848;2023-07-24T07:24:00;13.20;;;11.25;;
42018;SDS011;27703;51.980;5.848;2023-07-24T07:26:26;17.77;;;11.48;;
42018;SDS011;27703;51.980;5.848;2023-07-24T07:28:51;11.90;;;10.40;;
42018;SDS011;27703;51.980;5.848;2023-07-24T07:31:17;15.05;;;10.73;;
42018;SDS011;27703;51.980;5.848;2023-07-24T07:33:42;11.18;;;10.05;;
42018;SDS011;27703;51.980;5.848;2023-07-24T07:36:08;15.85;;;11.82;;
42018;SDS011;27703;51.980;5.848;2023-07-24T07:38:34;13.45;;;11.05;;
42018;SDS011;27703;51.980;5.848;2023-07-24T07:41:03;12.27;;;10.75;;
42018;SDS011;27703;51.980;5.848;2023-07-24T07:43:30;11.52;;;10.23;;
42018;SDS011;27703;51.980;5.848;2023-07-24T07:45:56;12.23;;;10.52;;
42018;SDS011;27703;51.980;5.848;2023-07-24T07:48:21;11.23;;;10.13;;
42018;SDS011;27703;51.980;5.848;2023-07-24T07:50:50;11.77;;;9.93;;
42018;SDS011;27703;51.980;5.848;2023-07-24T07:53:16;13.43;;;10.80;;
42018;SDS011;27703;51.980;5.848;2023-07-24T07:55:42;9.52;;;8.52;;
42018;SDS011;27703;51.980;5.848;2023-07-24T07:58:07;10.48;;;9.43;;
42018;SDS011;27703;51.980;5.848;2023-07-24T08:00:34;13.40;;;10.07;;
42018;SDS011;27703;51.980;5.848;2023-07-24T08:02:59;12.88;;;9.05;;
42018;SDS011;27703;51.980;5.848;2023-07-24T08:05:25;11.73;;;8.85;;
42018;SDS011;27703;51.980;5.848;2023-07-24T08:07:50;12.88;;;9.55;;
42018;SDS011;27703;51.980;5.848;2023-07-24T08:10:16;11.52;;;9.38;;
42018;SDS011;27703;51.980;5.848;2023-07-24T08:12:42;10.07;;;8.93;;
42018;SDS011;27703;51.980;5.848;2023-07-24T08:15:08;8.95;;;8.05;;
42018;SDS011;27703;51.980;5.848;2023-07-24T08:17:34;10.35;;;9.32;;
42018;SDS011;27703;51.980;5.848;2023-07-24T08:19:59;10.02;;;9.02;;
42018;SDS011;27703;51.980;5.848;2023-07-24T08:22:25;10.43;;;9.30;;
42018;SDS011;27703;51.980;5.848;2023-07-24T08:24:50;11.77;;;9.23;;
42018;SDS011;27703;51.980;5.848;2023-07-24T08:27:16;10.25;;;9.18;;
42018;SDS011;27703;51.980;5.848;2023-07-24T08:29:42;11.75;;;8.85;;
42018;SDS011;27703;51.980;5.848;2023-07-24T08:32:08;10.88;;;9.88;;
42018;SDS011;27703;51.980;5.848;2023-07-24T08:34:33;13.70;;;10.82;;
42018;SDS011;27703;51.980;5.848;2023-07-24T08:36:59;12.07;;;9.85;;
42018;SDS011;27703;51.980;5.848;2023-07-24T08:39:25;14.95;;;10.45;;
42018;SDS011;27703;51.980;5.848;2023-07-24T08:41:50;12.27;;;10.50;;
42018;SDS011;27703;51.980;5.848;2023-07-24T08:44:16;9.70;;;8.68;;
42018;SDS011;27703;51.980;5.848;2023-07-24T08:46:42;9.07;;;8.07;;
42018;SDS011;27703;51.980;5.848;2023-07-24T08:49:11;10.70;;;9.45;;
42018;SDS011;27703;51.980;5.848;2023-07-24T08:51:38;13.13;;;11.73;;
42018;SDS011;27703;51.980;5.848;2023-07-24T08:54:08;12.75;;;10.93;;
42018;SDS011;27703;51.980;5.848;2023-07-24T08:56:36;11.07;;;10.00;;
42018;SDS011;27703;51.980;5.848;2023-07-24T08:59:02;10.57;;;9.52;;
42018;SDS011;27703;51.980;5.848;2023-07-24T09:01:28;9.32;;;8.45;;
42018;SDS011;27703;51.980;5.848;2023-07-24T09:03:53;8.55;;;7.55;;
42018;SDS011;27703;51.980;5.848;2023-07-24T09:06:19;10.13;;;8.77;;
42018;SDS011;27703;51.980;5.848;2023-07-24T09:08:45;8.70;;;7.32;;
42018;SDS011;27703;51.980;5.848;2023-07-24T09:11:10;10.05;;;8.60;;
42018;SDS011;27703;51.980;5.848;2023-07-24T09:13:41;7.75;;;7.05;;
42018;SDS011;27703;51.980;5.848;2023-07-24T09:16:07;7.88;;;7.18;;
42018;SDS011;27703;51.980;5.848;2023-07-24T09:18:39;9.07;;;8.18;;
42018;SDS011;27703;51.980;5.848;2023-07-24T09:21:06;9.10;;;8.35;;
42018;SDS011;27703;51.980;5.848;2023-07-24T09:23:32;8.50;;;7.75;;
42018;SDS011;27703;51.980;5.848;2023-07-24T09:25:57;8.40;;;7.60;;
42018;SDS011;27703;51.980;5.848;2023-07-24T09:28:23;8.18;;;7.45;;
42018;SDS011;27703;51.980;5.848;2023-07-24T09:30:53;8.50;;;7.70;;
42018;SDS011;27703;51.980;5.848;2023-07-24T09:33:44;7.30;;;6.60;;
42018;SDS011;27703;51.980;5.848;2023-07-24T09:36:09;8.07;;;6.45;;
42018;SDS011;27703;51.980;5.848;2023-07-24T09:38:38;8.05;;;7.25;;
42018;SDS011;27703;51.980;5.848;2023-07-24T09:41:05;8.30;;;5.47;;
42018;SDS011;27703;51.980;5.848;2023-07-24T09:43:32;9.98;;;7.07;;
42018;SDS011;27703;51.980;5.848;2023-07-24T09:45:57;7.18;;;6.00;;
42018;SDS011;27703;51.980;5.848;2023-07-24T09:48:24;6.90;;;5.32;;
42018;SDS011;27703;51.980;5.848;2023-07-24T09:50:55;5.82;;;5.35;;
42018;SDS011;27703;51.980;5.848;2023-07-24T09:55:57;5.97;;;4.38;;
42018;SDS011;27703;51.980;5.848;2023-07-24T09:58:24;7.43;;;4.30;;
42018;SDS011;27703;51.980;5.848;2023-07-24T10:00:51;5.97;;;4.72;;
42018;SDS011;27703;51.980;5.848;2023-07-24T10:03:17;4.88;;;4.47;;
42018;SDS011;27703;51.980;5.848;2023-07-24T10:05:45;8.50;;;4.82;;
42018;SDS011;27703;51.980;5.848;2023-07-24T10:08:11;3.92;;;3.63;;
42018;SDS011;27703;51.980;5.848;2023-07-24T10:10:38;7.18;;;4.40;;
42018;SDS011;27703;51.980;5.848;2023-07-24T10:13:04;4.13;;;3.47;;
42018;SDS011;27703;51.980;5.848;2023-07-24T10:15:31;4.82;;;4.30;;
42018;SDS011;27703;51.980;5.848;2023-07-24T10:18:03;4.65;;;4.25;;
42018;SDS011;27703;51.980;5.848;2023-07-24T10:20:34;5.15;;;4.65;;
42018;SDS011;27703;51.980;5.848;2023-07-24T10:23:18;6.20;;;4.53;;
42018;SDS011;27703;51.980;5.848;2023-07-24T10:25:45;7.75;;;4.82;;
42018;SDS011;27703;51.980;5.848;2023-07-24T10:28:11;8.35;;;7.05;;
42018;SDS011;27703;51.980;5.848;2023-07-24T10:30:37;7.75;;;6.70;;
42018;SDS011;27703;51.980;5.848;2023-07-24T10:33:16;8.57;;;6.93;;
42018;SDS011;27703;51.980;5.848;2023-07-24T10:35:44;8.70;;;7.03;;
42018;SDS011;27703;51.980;5.848;2023-07-24T10:38:15;8.45;;;5.40;;
42018;SDS011;27703;51.980;5.848;2023-07-24T10:40:41;6.28;;;5.50;;
42018;SDS011;27703;51.980;5.848;2023-07-24T10:43:12;7.25;;;5.95;;
42018;SDS011;27703;51.980;5.848;2023-07-24T10:45:45;6.20;;;5.03;;
42018;SDS011;27703;51.980;5.848;2023-07-24T10:48:12;6.03;;;5.53;;
42018;SDS011;27703;51.980;5.848;2023-07-24T10:50:38;4.63;;;4.22;;
42018;SDS011;27703;51.980;5.848;2023-07-24T10:53:05;5.28;;;4.53;;
42018;SDS011;27703;51.980;5.848;2023-07-24T10:55:30;5.45;;;4.10;;
42018;SDS011;27703;51.980;5.848;2023-07-24T10:57:56;4.70;;;2.97;;
42018;SDS011;27703;51.980;5.848;2023-07-24T11:00:21;3.88;;;3.30;;
42018;SDS011;27703;51.980;5.848;2023-07-24T11:02:47;6.68;;;3.03;;
42018;SDS011;27703;51.980;5.848;2023-07-24T11:05:13;5.70;;;3.78;;
42018;SDS011;27703;51.980;5.848;2023-07-24T11:07:40;5.53;;;4.32;;
42018;SDS011;27703;51.980;5.848;2023-07-24T11:10:18;5.25;;;3.80;;
42018;SDS011;27703;51.980;5.848;2023-07-24T11:12:45;4.50;;;4.05;;
42018;SDS011;27703;51.980;5.848;2023-07-24T11:15:11;6.70;;;4.03;;
42018;SDS011;27703;51.980;5.848;2023-07-24T11:17:38;6.15;;;3.63;;
42018;SDS011;27703;51.980;5.848;2023-07-24T11:20:15;7.47;;;4.95;;
42018;SDS011;27703;51.980;5.848;2023-07-24T11:22:42;4.72;;;4.32;;
42018;SDS011;27703;51.980;5.848;2023-07-24T11:25:11;5.53;;;4.97;;
42018;SDS011;27703;51.980;5.848;2023-07-24T11:27:38;6.03;;;5.43;;
42018;SDS011;27703;51.980;5.848;2023-07-24T11:32:38;7.93;;;5.60;;
42018;SDS011;27703;51.980;5.848;2023-07-24T11:35:05;8.48;;;5.97;;
42018;SDS011;27703;51.980;5.848;2023-07-24T11:37:31;7.47;;;6.15;;
42018;SDS011;27703;51.980;5.848;2023-07-24T11:39:58;6.53;;;5.70;;
42018;SDS011;27703;51.980;5.848;2023-07-24T11:42:29;6.22;;;5.53;;
42018;SDS011;27703;51.980;5.848;2023-07-24T11:44:55;5.45;;;4.75;;
42018;SDS011;27703;51.980;5.848;2023-07-24T11:47:25;5.55;;;5.05;;
42018;SDS011;27703;51.980;5.848;2023-07-24T11:50:00;6.43;;;5.50;;
42018;SDS011;27703;51.980;5.848;2023-07-24T11:52:36;8.13;;;4.88;;
42018;SDS011;27703;51.980;5.848;2023-07-24T11:55:08;8.25;;;6.10;;
42018;SDS011;27703;51.980;5.848;2023-07-24T11:57:34;5.55;;;5.00;;
42018;SDS011;27703;51.980;5.848;2023-07-24T12:00:00;6.30;;;4.80;;
42018;SDS011;27703;51.980;5.848;2023-07-24T12:02:26;3.28;;;2.85;;
42018;SDS011;27703;51.980;5.848;2023-07-24T12:04:56;5.60;;;4.72;;
42018;SDS011;27703;51.980;5.848;2023-07-24T12:07:34;5.72;;;4.22;;
42018;SDS011;27703;51.980;5.848;2023-07-24T12:10:03;6.93;;;3.75;;
42018;SDS011;27703;51.980;5.848;2023-07-24T12:15:03;6.38;;;4.47;;
42018;SDS011;27703;51.980;5.848;2023-07-24T12:17:29;4.25;;;3.30;;
42018;SDS011;27703;51.980;5.848;2023-07-24T12:19:55;6.30;;;4.07;;
42018;SDS011;27703;51.980;5.848;2023-07-24T12:22:20;5.60;;;4.47;;
42018;SDS011;27703;51.980;5.848;2023-07-24T12:24:47;7.13;;;3.58;;
42018;SDS011;27703;51.980;5.848;2023-07-24T12:27:12;4.65;;;4.07;;
42018;SDS011;27703;51.980;5.848;2023-07-24T12:29:38;5.05;;;3.22;;
42018;SDS011;27703;51.980;5.848;2023-07-24T12:32:04;7.15;;;4.88;;
42018;SDS011;27703;51.980;5.848;2023-07-24T12:34:29;5.60;;;3.95;;
42018;SDS011;27703;51.980;5.848;2023-07-24T12:36:55;5.25;;;3.90;;
42018;SDS011;27703;51.980;5.848;2023-07-24T12:39:20;4.25;;;2.38;;
42018;SDS011;27703;51.980;5.848;2023-07-24T12:41:46;5.68;;;3.92;;
42018;SDS011;27703;51.980;5.848;2023-07-24T12:44:12;8.52;;;4.00;;
42018;SDS011;27703;51.980;5.848;2023-07-24T12:46:37;7.75;;;3.72;;
42018;SDS011;27703;51.980;5.848;2023-07-24T12:49:03;8.07;;;3.08;;
42018;SDS011;27703;51.980;5.848;2023-07-24T12:51:28;4.65;;;2.83;;
42018;SDS011;27703;51.980;5.848;2023-07-24T12:53:54;4.03;;;2.60;;
42018;SDS011;27703;51.980;5.848;2023-07-24T12:56:19;3.50;;;1.95;;
42018;SDS011;27703;51.980;5.848;2023-07-24T12:58:45;3.00;;;1.77;;
42018;SDS011;27703;51.980;5.848;2023-07-24T13:01:12;5.18;;;1.85;;
42018;SDS011;27703;51.980;5.848;2023-07-24T13:03:37;4.22;;;1.45;;
42018;SDS011;27703;51.980;5.848;2023-07-24T13:06:03;3.30;;;2.03;;
42018;SDS011;27703;51.980;5.848;2023-07-24T13:08:28;2.72;;;1.30;;
42018;SDS011;27703;51.980;5.848;2023-07-24T13:10:54;1.92;;;1.23;;
42018;SDS011;27703;51.980;5.848;2023-07-24T13:13:19;3.17;;;1.83;;
42018;SDS011;27703;51.980;5.848;2023-07-24T13:15:45;3.15;;;1.40;;
42018;SDS011;27703;51.980;5.848;2023-07-24T13:18:11;2.28;;;1.33;;
42018;SDS011;27703;51.980;5.848;2023-07-24T13:20:39;4.53;;;2.35;;
42018;SDS011;27703;51.980;5.848;2023-07-24T13:23:05;2.70;;;1.30;;
42018;SDS011;27703;51.980;5.848;2023-07-24T13:25:31;5.50;;;1.95;;
42018;SDS011;27703;51.980;5.848;2023-07-24T13:27:56;3.17;;;2.22;;
42018;SDS011;27703;51.980;5.848;2023-07-24T13:30:22;4.18;;;1.30;;
42018;SDS011;27703;51.980;5.848;2023-07-24T13:32:47;4.78;;;1.80;;
42018;SDS011;27703;51.980;5.848;2023-07-24T13:35:13;2.88;;;1.60;;
42018;SDS011;27703;51.980;5.848;2023-07-24T13:37:40;2.95;;;1.48;;
42018;SDS011;27703;51.980;5.848;2023-07-24T13:40:06;3.03;;;1.08;;
42018;SDS011;27703;51.980;5.848;2023-07-24T13:42:32;3.47;;;1.30;;
42018;SDS011;27703;51.980;5.848;2023-07-24T13:44:57;1.98;;;1.10;;
42018;SDS011;27703;51.980;5.848;2023-07-24T13:47:23;2.38;;;1.33;;
42018;SDS011;27703;51.980;5.848;2023-07-24T13:49:49;2.55;;;1.77;;
42018;SDS011;27703;51.980;5.848;2023-07-24T13:52:14;5.97;;;1.80;;
42018;SDS011;27703;51.980;5.848;2023-07-24T13:54:40;4.40;;;2.15;;
42018;SDS011;27703;51.980;5.848;2023-07-24T13:57:06;2.88;;;1.75;;
42018;SDS011;27703;51.980;5.848;2023-07-24T13:59:34;2.55;;;1.75;;
42018;SDS011;27703;51.980;5.848;2023-07-24T14:02:04;2.42;;;1.63;;
42018;SDS011;27703;51.980;5.848;2023-07-24T14:04:30;2.72;;;1.63;;
42018;SDS011;27703;51.980;5.848;2023-07-24T14:06:56;2.72;;;1.88;;
42018;SDS011;27703;51.980;5.848;2023-07-24T14:09:22;4.43;;;1.60;;
42018;SDS011;27703;51.980;5.848;2023-07-24T14:11:47;2.78;;;1.80;;
42018;SDS011;27703;51.980;5.848;2023-07-24T14:14:13;3.08;;;1.27;;
42018;SDS011;27703;51.980;5.848;2023-07-24T14:16:38;3.30;;;1.73;;
42018;SDS011;27703;51.980;5.848;2023-07-24T14:19:04;3.60;;;1.60;;
42018;SDS011;27703;51.980;5.848;2023-07-24T14:21:30;2.30;;;1.25;;
42018;SDS011;27703;51.980;5.848;2023-07-24T14:23:55;4.07;;;1.65;;
42018;SDS011;27703;51.980;5.848;2023-07-24T14:26:21;5.85;;;2.35;;
42018;SDS011;27703;51.980;5.848;2023-07-24T14:28:48;3.00;;;1.17;;
42018;SDS011;27703;51.980;5.848;2023-07-24T14:31:13;1.60;;;0.95;;
42018;SDS011;27703;51.980;5.848;2023-07-24T14:33:39;2.45;;;1.55;;
42018;SDS011;27703;51.980;5.848;2023-07-24T14:36:05;2.28;;;1.27;;
42018;SDS011;27703;51.980;5.848;2023-07-24T14:38:30;2.90;;;1.38;;
42018;SDS011;27703;51.980;5.848;2023-07-24T14:40:56;3.15;;;1.20;;
42018;SDS011;27703;51.980;5.848;2023-07-24T14:43:21;5.90;;;1.40;;
42018;SDS011;27703;51.980;5.848;2023-07-24T14:45:47;3.13;;;1.98;;
42018;SDS011;27703;51.980;5.848;2023-07-24T14:48:13;2.03;;;1.25;;